createdAt,value
2018-07-16T00:00:14.610Z,99202.05
2018-07-16T00:02:42.953Z,99200.72
2018-07-16T00:05:11.434Z,99194.00
2018-07-16T00:07:39.751Z,99190.81
2018-07-16T00:10:08.079Z,99181.92
2018-07-16T00:12:36.360Z,99181.43
2018-07-16T00:15:04.775Z,99189.83
2018-07-16T00:17:33.269Z,99185.63
2018-07-16T00:20:01.693Z,99186.62
2018-07-16T00:22:29.977Z,99191.64
2018-07-16T00:24:58.150Z,99192.83
2018-07-16T00:27:26.406Z,99193.68
2018-07-16T00:29:54.734Z,99188.59
2018-07-16T00:32:23.077Z,99190.09
2018-07-16T00:34:51.364Z,99186.27
2018-07-16T00:37:19.608Z,99189.66
2018-07-16T00:39:47.902Z,99194.52
2018-07-16T00:42:16.218Z,99193.51
2018-07-16T00:44:44.456Z,99189.48
2018-07-16T00:47:12.285Z,99188.28
2018-07-16T00:49:40.725Z,99175.00
2018-07-16T00:52:09.077Z,99183.88
2018-07-16T00:54:37.354Z,99173.47
2018-07-16T00:57:05.875Z,99176.31
2018-07-16T00:59:34.309Z,99175.32
2018-07-16T01:02:02.703Z,99179.36
2018-07-16T01:04:31.005Z,99174.54
2018-07-16T01:06:59.346Z,99178.91
2018-07-16T01:09:27.613Z,99184.45
2018-07-16T01:11:55.932Z,99178.38
2018-07-16T01:14:24.156Z,99181.38
2018-07-16T01:16:52.650Z,99173.84
2018-07-16T01:19:21.035Z,99173.83
2018-07-16T01:21:49.547Z,99172.83
2018-07-16T01:24:17.680Z,99176.67
2018-07-16T01:26:46.067Z,99170.77
2018-07-16T01:29:14.477Z,99168.08
2018-07-16T01:31:42.812Z,99163.55
2018-07-16T01:34:11.086Z,99163.23
2018-07-16T01:36:39.421Z,99159.86
2018-07-16T01:39:07.861Z,99158.34
2018-07-16T01:41:36.025Z,99160.05
2018-07-16T01:44:04.327Z,99155.52
2018-07-16T01:46:32.466Z,99154.36
2018-07-16T01:49:00.504Z,99158.39
2018-07-16T01:51:28.746Z,99157.37
2018-07-16T01:53:56.861Z,99160.45
2018-07-16T01:56:24.935Z,99172.50
2018-07-16T01:58:53.373Z,99177.25
2018-07-16T02:01:21.817Z,99180.59
2018-07-16T02:03:50.232Z,99185.13
2018-07-16T02:06:18.475Z,99181.44
2018-07-16T02:08:46.738Z,99188.79
2018-07-16T02:11:15.174Z,99187.27
2018-07-16T02:13:43.490Z,99185.59
2018-07-16T02:16:11.873Z,99187.43
2018-07-16T02:18:40.149Z,99185.45
2018-07-16T02:21:08.321Z,99186.25
2018-07-16T02:23:36.742Z,99182.88
2018-07-16T02:26:05.018Z,99186.75
2018-07-16T02:28:33.354Z,99193.83
2018-07-16T02:31:01.567Z,99187.59
2018-07-16T02:33:29.904Z,99186.74
2018-07-16T02:35:58.086Z,99187.09
2018-07-16T02:38:26.396Z,99192.95
2018-07-16T02:40:54.631Z,99198.20
2018-07-16T02:43:22.909Z,99189.97
2018-07-16T02:45:51.316Z,99191.79
2018-07-16T02:48:19.548Z,99197.17
2018-07-16T02:50:47.390Z,99195.19
2018-07-16T02:53:15.606Z,99198.18
2018-07-16T02:55:44.115Z,99197.16
2018-07-16T02:58:11.961Z,99195.50
2018-07-16T03:00:40.218Z,99192.13
2018-07-16T03:03:08.532Z,99197.96
2018-07-16T03:05:36.875Z,99196.31
2018-07-16T03:08:05.255Z,99204.86
2018-07-16T03:10:33.474Z,99199.98
2018-07-16T03:13:01.709Z,99202.34
2018-07-16T03:15:29.970Z,99194.59
2018-07-16T03:17:58.339Z,99195.46
2018-07-16T03:20:26.769Z,99194.58
2018-07-16T03:22:55.110Z,99195.92
2018-07-16T03:25:23.382Z,99196.10
2018-07-16T03:27:52.325Z,99199.47
2018-07-16T03:30:20.521Z,99198.64
2018-07-16T03:32:48.821Z,99201.47
2018-07-16T03:35:17.143Z,99196.11
2018-07-16T03:37:45.509Z,99194.27
2018-07-16T03:40:13.853Z,99195.26
2018-07-16T03:42:42.372Z,99196.30
2018-07-16T03:45:10.816Z,99201.81
2018-07-16T03:47:39.080Z,99196.59
2018-07-16T03:50:07.460Z,99191.90
2018-07-16T03:52:35.754Z,99194.91
2018-07-16T03:55:04.116Z,99202.09
2018-07-16T03:57:32.294Z,99200.75
2018-07-16T04:00:00.565Z,99192.22
2018-07-16T04:02:29.081Z,99193.36
2018-07-16T04:04:57.437Z,99189.45
2018-07-16T04:07:25.714Z,99190.98
2018-07-16T04:09:54.086Z,99187.11
2018-07-16T04:12:22.470Z,99191.25
2018-07-16T04:14:50.751Z,99195.78
2018-07-16T04:17:19.303Z,99195.16
2018-07-16T04:19:47.585Z,99190.46
2018-07-16T04:22:15.875Z,99182.97
2018-07-16T04:24:44.056Z,99174.47
2018-07-16T04:27:12.413Z,99180.88
2018-07-16T04:29:40.701Z,99170.00
2018-07-16T04:32:08.983Z,99173.47
2018-07-16T04:34:37.254Z,99172.56
2018-07-16T04:37:05.079Z,99167.78
2018-07-16T04:39:33.280Z,99174.94
2018-07-16T04:42:01.449Z,99175.25
2018-07-16T04:44:29.318Z,99178.25
2018-07-16T04:46:57.594Z,99184.63
2018-07-16T04:49:25.766Z,99176.22
2018-07-16T04:51:53.801Z,99184.78
2018-07-16T04:54:22.017Z,99181.91
2018-07-16T04:56:50.191Z,99190.09
2018-07-16T04:59:18.136Z,99191.31
2018-07-16T05:01:46.425Z,99190.81
2018-07-16T05:04:14.710Z,99197.69
2018-07-16T05:06:42.729Z,99190.74
2018-07-16T05:09:10.923Z,99193.39
2018-07-16T05:11:39.125Z,99197.23
2018-07-16T05:14:07.403Z,99192.55
2018-07-16T05:16:35.669Z,99189.20
2018-07-16T05:19:04.050Z,99182.25
2018-07-16T05:21:32.329Z,99189.55
2018-07-16T05:24:00.632Z,99192.47
2018-07-16T05:26:28.872Z,99196.16
2018-07-16T05:28:57.253Z,99202.84
2018-07-16T05:31:25.633Z,99195.87
2018-07-16T05:33:53.905Z,99199.52
2018-07-16T05:36:22.190Z,99206.00
2018-07-16T05:38:50.672Z,99200.72
2018-07-16T05:41:18.938Z,99205.14
2018-07-16T05:43:47.210Z,99211.23
2018-07-16T05:46:15.598Z,99215.76
2018-07-16T05:48:43.873Z,99211.06
2018-07-16T05:51:12.141Z,99216.59
2018-07-16T05:53:39.973Z,99216.85
2018-07-16T05:56:08.181Z,99210.77
2018-07-16T05:58:36.444Z,99220.94
2018-07-16T06:01:04.737Z,99215.64
2018-07-16T06:03:33.006Z,99217.59
2018-07-16T06:06:01.605Z,99213.16
2018-07-16T06:08:29.878Z,99213.30
2018-07-16T06:10:58.233Z,99209.95
2018-07-16T06:13:26.526Z,99214.50
2018-07-16T06:15:54.805Z,99211.59
2018-07-16T06:18:23.075Z,99210.14
2018-07-16T06:20:51.461Z,99210.70
2018-07-16T06:23:19.730Z,99210.29
2018-07-16T06:25:48.114Z,99204.49
2018-07-16T06:28:16.486Z,99208.44
2018-07-16T06:30:44.853Z,99204.88
2018-07-16T06:33:13.146Z,99203.25
2018-07-16T06:35:41.418Z,99212.20
2018-07-16T06:38:09.886Z,99219.70
2018-07-16T06:40:38.496Z,99213.39
2018-07-16T06:43:06.749Z,99204.60
2018-07-16T06:45:35.027Z,99197.30
2018-07-16T06:48:03.294Z,99201.84
2018-07-16T06:50:32.435Z,99210.64
2018-07-16T06:53:00.814Z,99211.00
2018-07-16T06:55:29.059Z,99211.05
2018-07-16T06:57:57.421Z,99207.16
2018-07-16T07:00:25.660Z,99199.20
2018-07-16T07:02:53.474Z,99205.58
2018-07-16T07:05:21.741Z,99208.55
2018-07-16T07:07:49.906Z,99210.06
2018-07-16T07:10:18.100Z,99201.67
2018-07-16T07:12:46.474Z,99203.80
2018-07-16T07:15:14.937Z,99201.88
2018-07-16T07:17:43.360Z,99196.05
2018-07-16T07:20:11.627Z,99194.95
2018-07-16T07:22:39.982Z,99201.83
2018-07-16T07:25:08.039Z,99202.02
2018-07-16T07:27:36.519Z,99196.23
2018-07-16T07:30:05.001Z,99198.73
2018-07-16T07:32:33.277Z,99202.73
2018-07-16T07:35:01.831Z,99205.84
2018-07-16T07:37:30.038Z,99202.89
2018-07-16T07:39:58.418Z,99201.37
2018-07-16T07:42:26.794Z,99204.77
2018-07-16T07:44:55.325Z,99199.81
2018-07-16T07:47:23.450Z,99197.17
2018-07-16T07:49:51.825Z,99199.20
2018-07-16T07:52:20.097Z,99198.23
2018-07-16T07:54:48.549Z,99199.73
2018-07-16T07:57:16.751Z,99200.84
2018-07-16T07:59:44.934Z,99194.34
2018-07-16T08:02:13.306Z,99193.31
2018-07-16T08:04:41.682Z,99197.94
2018-07-16T08:07:10.779Z,99191.38
2018-07-16T08:09:39.163Z,99190.97
2018-07-16T08:12:09.030Z,99189.87
2018-07-16T08:14:37.450Z,99190.28
2018-07-16T08:17:05.906Z,99191.31
2018-07-16T08:19:34.317Z,99188.40
2018-07-16T08:22:02.758Z,99194.33
2018-07-16T08:24:31.373Z,99202.00
2018-07-16T08:26:59.846Z,99201.88
2018-07-16T08:29:28.126Z,99205.72
2018-07-16T08:31:56.506Z,99202.75
2018-07-16T08:34:24.765Z,99207.00
2018-07-16T08:36:53.046Z,99206.16
2018-07-16T08:39:21.340Z,99199.45
2018-07-16T08:41:49.610Z,99201.73
2018-07-16T08:44:17.999Z,99199.22
2018-07-16T08:46:46.358Z,99192.45
2018-07-16T08:49:14.622Z,99190.95
2018-07-16T08:51:42.785Z,99195.53
2018-07-16T08:54:11.085Z,99203.19
2018-07-16T08:56:39.378Z,99204.59
2018-07-16T08:59:07.893Z,99195.44
2018-07-16T09:01:36.014Z,99203.56
2018-07-16T09:04:04.388Z,99200.67
2018-07-16T09:06:32.770Z,99206.33
2018-07-16T09:09:01.147Z,99198.42
2018-07-16T09:11:29.626Z,99206.55
2018-07-16T09:13:57.896Z,99200.08
2018-07-16T09:16:26.277Z,99200.97
2018-07-16T09:18:54.546Z,99203.13
2018-07-16T09:21:22.836Z,99195.84
2018-07-16T09:23:51.098Z,99204.20
2018-07-16T09:26:19.420Z,99198.23
2018-07-16T09:28:47.841Z,99199.06
2018-07-16T09:31:16.048Z,99200.53
2018-07-16T09:33:44.316Z,99200.13
2018-07-16T09:36:12.677Z,99205.52
2018-07-16T09:38:41.057Z,99197.64
2018-07-16T09:41:09.162Z,99192.09
2018-07-16T09:43:37.429Z,99195.42
2018-07-16T09:46:05.806Z,99196.45
2018-07-16T09:48:33.648Z,99208.23
2018-07-16T09:51:01.930Z,99203.95
2018-07-16T09:53:29.758Z,99187.70
2018-07-16T09:55:57.978Z,99194.28
2018-07-16T09:58:26.242Z,99198.13
2018-07-16T10:00:59.783Z,99189.38
2018-07-16T10:03:28.018Z,99189.48
2018-07-16T10:05:56.398Z,99197.31
2018-07-16T10:08:24.735Z,99188.78
2018-07-16T10:10:52.938Z,99189.70
2018-07-16T10:13:21.214Z,99199.81
2018-07-16T10:15:49.512Z,99185.33
2018-07-16T10:18:17.762Z,99195.11
2018-07-16T10:20:46.041Z,99197.09
2018-07-16T10:23:14.326Z,99192.52
2018-07-16T10:25:42.839Z,99187.52
2018-07-16T10:28:11.333Z,99176.20
2018-07-16T10:30:39.594Z,99174.92
2018-07-16T10:33:07.847Z,99177.30
2018-07-16T10:35:36.113Z,99176.58
2018-07-16T10:38:04.491Z,99181.66
2018-07-16T10:40:32.894Z,99180.20
2018-07-16T10:43:00.758Z,99175.59
2018-07-16T10:45:29.002Z,99181.15
2018-07-16T10:47:57.406Z,99176.72
2018-07-16T10:50:25.767Z,99176.58
2018-07-16T10:52:54.042Z,99169.72
2018-07-16T10:55:22.489Z,99171.59
2018-07-16T10:57:50.704Z,99168.98
2018-07-16T11:00:19.057Z,99161.38
2018-07-16T11:02:47.366Z,99164.59
2018-07-16T11:05:15.662Z,99158.45
2018-07-16T11:07:43.993Z,99160.02
2018-07-16T11:10:12.281Z,99166.17
2018-07-16T11:12:40.554Z,99161.06
2018-07-16T11:15:08.910Z,99160.67
2018-07-16T11:17:37.202Z,99150.13
2018-07-16T11:20:07.437Z,99152.42
2018-07-16T11:22:35.806Z,99153.48
2018-07-16T11:25:04.221Z,99151.39
2018-07-16T11:27:32.549Z,99150.95
2018-07-16T11:30:00.795Z,99149.34
2018-07-16T11:32:28.997Z,99139.91
2018-07-16T11:34:57.173Z,99145.95
2018-07-16T11:37:25.559Z,99142.27
2018-07-16T11:39:53.934Z,99136.77
2018-07-16T11:42:22.303Z,99137.13
2018-07-16T11:44:50.690Z,99134.52
2018-07-16T11:47:19.084Z,99135.42
2018-07-16T11:49:47.342Z,99137.67
2018-07-16T11:52:15.889Z,99133.31
2018-07-16T11:54:44.306Z,99142.03
2018-07-16T11:57:12.579Z,99136.06
2018-07-16T11:59:40.891Z,99140.33
2018-07-16T12:02:09.024Z,99136.77
2018-07-16T12:04:37.200Z,99135.23
2018-07-16T12:07:05.103Z,99128.77
2018-07-16T12:09:33.334Z,99128.95
2018-07-16T12:12:01.620Z,99119.34
2018-07-16T12:14:29.678Z,99126.97
2018-07-16T12:16:58.073Z,99131.04
2018-07-16T12:19:26.242Z,99123.97
2018-07-16T12:21:54.930Z,99125.42
2018-07-16T12:24:23.314Z,99108.25
2018-07-16T12:26:51.681Z,99127.15
2018-07-16T12:29:19.960Z,99124.72
2018-07-16T12:31:48.234Z,99121.08
2018-07-16T12:34:16.504Z,99103.30
2018-07-16T12:36:44.781Z,99105.36
2018-07-16T12:39:12.979Z,99102.13
2018-07-16T12:41:41.249Z,99100.95
2018-07-16T12:44:09.593Z,99108.77
2018-07-16T12:46:37.569Z,99100.53
2018-07-16T12:49:05.950Z,99102.13
2018-07-16T12:51:34.133Z,99099.55
2018-07-16T12:54:02.273Z,99097.08
2018-07-16T12:56:30.690Z,99087.72
2018-07-16T12:58:59.042Z,99083.00
2018-07-16T13:01:27.537Z,99087.86
2018-07-16T13:03:55.822Z,99079.92
2018-07-16T13:06:24.091Z,99076.69
2018-07-16T13:08:53.453Z,99075.47
2018-07-16T13:11:21.753Z,99078.14
2018-07-16T13:13:50.450Z,99069.38
2018-07-16T13:16:18.933Z,99070.06
2018-07-16T13:18:47.215Z,99072.69
2018-07-16T13:21:15.593Z,99068.82
2018-07-16T13:23:43.960Z,99066.06
2018-07-16T13:26:12.442Z,99073.16
2018-07-16T13:28:40.718Z,99068.44
2018-07-16T13:31:09.087Z,99070.11
2018-07-16T13:33:37.361Z,99067.83
2018-07-16T13:36:05.657Z,99063.94
2018-07-16T13:38:34.031Z,99063.16
2018-07-16T13:41:02.301Z,99065.21
2018-07-16T13:43:30.783Z,99057.75
2018-07-16T13:45:58.947Z,99056.13
2018-07-16T13:48:27.331Z,99058.84
2018-07-16T13:50:55.506Z,99049.53
2018-07-16T13:53:24.090Z,99051.26
2018-07-16T13:55:52.353Z,99046.36
2018-07-16T13:58:20.638Z,99044.27
2018-07-16T14:00:48.802Z,99042.72
2018-07-16T14:03:17.094Z,99047.94
2018-07-16T14:05:45.453Z,99042.80
2018-07-16T14:08:13.735Z,99037.41
2018-07-16T14:10:41.908Z,99034.98
2018-07-16T14:13:10.180Z,99031.97
2018-07-16T14:15:38.558Z,99041.84
2018-07-16T14:18:06.507Z,99032.64
2018-07-16T14:20:34.892Z,99033.24
2018-07-16T14:23:03.385Z,99030.16
2018-07-16T14:25:31.229Z,99028.57
2018-07-16T14:27:59.637Z,99030.77
2018-07-16T14:30:27.802Z,99038.58
2018-07-16T14:32:56.290Z,99037.41
2018-07-16T14:35:24.458Z,99033.47
2018-07-16T14:37:52.833Z,99037.17
2018-07-16T14:40:21.126Z,99029.72
2018-07-16T14:42:49.490Z,99030.50
2018-07-16T14:45:17.670Z,99025.80
2018-07-16T14:47:45.943Z,99025.77
2018-07-16T14:50:14.293Z,99026.80
2018-07-16T14:52:42.481Z,99033.71
2018-07-16T14:55:10.762Z,99026.61
2018-07-16T14:57:39.254Z,99027.13
2018-07-16T15:00:07.517Z,99025.10
2018-07-16T15:02:36.014Z,99019.84
2018-07-16T15:05:04.374Z,99015.58
2018-07-16T15:07:32.553Z,99014.48
2018-07-16T15:10:00.827Z,99003.30
2018-07-16T15:12:29.212Z,99006.19
2018-07-16T15:14:57.486Z,99009.95
2018-07-16T15:17:25.662Z,99010.84
2018-07-16T15:19:54.073Z,99004.23
2018-07-16T15:22:22.274Z,99009.95
2018-07-16T15:24:50.511Z,99012.20
2018-07-16T15:27:18.907Z,99005.95
2018-07-16T15:29:47.214Z,99021.50
2018-07-16T15:32:15.497Z,99006.34
2018-07-16T15:34:43.690Z,99003.45
2018-07-16T15:37:12.077Z,99002.38
2018-07-16T15:39:40.342Z,99012.45
2018-07-16T15:42:08.214Z,99009.83
2018-07-16T15:44:36.501Z,99006.83
2018-07-16T15:47:04.952Z,99006.28
2018-07-16T15:49:32.804Z,98997.73
2018-07-16T15:52:01.130Z,99024.66
2018-07-16T15:54:29.474Z,99026.02
2018-07-16T15:56:57.750Z,99015.47
2018-07-16T15:59:26.193Z,99017.98
2018-07-16T16:01:54.402Z,99019.77
2018-07-16T16:04:22.690Z,99026.23
2018-07-16T16:06:51.060Z,99021.78
2018-07-16T16:09:19.429Z,99025.42
2018-07-16T16:11:47.743Z,99027.30
2018-07-16T16:14:15.990Z,99032.87
2018-07-16T16:16:44.361Z,99028.47
2018-07-16T16:19:12.670Z,99034.73
2018-07-16T16:21:41.153Z,99022.12
2018-07-16T16:24:09.426Z,99018.84
2018-07-16T16:26:37.872Z,99027.50
2018-07-16T16:29:06.350Z,99019.14
2018-07-16T16:31:34.775Z,99025.08
2018-07-16T16:34:03.246Z,99026.77
2018-07-16T16:36:31.567Z,99027.28
2018-07-16T16:38:59.910Z,99027.93
2018-07-16T16:41:28.142Z,99029.94
2018-07-16T16:43:56.521Z,99033.53
2018-07-16T16:46:24.829Z,99034.41
2018-07-16T16:48:53.078Z,99036.89
2018-07-16T16:51:21.354Z,99038.66
2018-07-16T16:53:49.721Z,99041.08
2018-07-16T16:56:18.102Z,99035.80
2018-07-16T16:58:46.557Z,99034.41
2018-07-16T17:01:14.767Z,99032.31
2018-07-16T17:03:42.944Z,99038.05
2018-07-16T17:06:10.842Z,99041.31
2018-07-16T17:08:39.277Z,99043.11
2018-07-16T17:11:07.748Z,99037.37
2018-07-16T17:13:35.597Z,99036.34
2018-07-16T17:16:03.892Z,99042.78
2018-07-16T17:18:32.393Z,99043.54
2018-07-16T17:21:00.337Z,99040.36
2018-07-16T17:23:28.613Z,99034.31
2018-07-16T17:25:57.032Z,99034.02
2018-07-16T17:28:25.170Z,99030.58
2018-07-16T17:30:53.658Z,99032.66
2018-07-16T17:33:22.069Z,99031.60
2018-07-16T17:35:49.901Z,99031.91
2018-07-16T17:38:18.178Z,99041.19
2018-07-16T17:40:46.471Z,99047.20
2018-07-16T17:43:14.726Z,99046.14
2018-07-16T17:45:43.179Z,99050.60
2018-07-16T17:48:11.421Z,99049.65
2018-07-16T17:50:39.652Z,99048.41
2018-07-16T17:53:08.042Z,99048.62
2018-07-16T17:55:36.542Z,99049.50
2018-07-16T17:58:04.894Z,99055.52
2018-07-16T18:00:33.281Z,99051.06
2018-07-16T18:03:01.603Z,99050.84
2018-07-16T18:05:30.020Z,99049.38
2018-07-16T18:07:58.445Z,99055.56
2018-07-16T18:10:26.714Z,99058.66
2018-07-16T18:12:55.049Z,99059.16
2018-07-16T18:15:23.325Z,99054.47
2018-07-16T18:17:51.611Z,99060.14
2018-07-16T18:20:20.081Z,99068.03
2018-07-16T18:22:48.358Z,99065.27
2018-07-16T18:25:16.870Z,99074.83
2018-07-16T18:27:45.090Z,99081.06
2018-07-16T18:30:13.424Z,99091.03
2018-07-16T18:32:41.697Z,99098.27
2018-07-16T18:35:10.137Z,99095.41
2018-07-16T18:37:38.412Z,99096.66
2018-07-16T18:40:06.809Z,99099.50
2018-07-16T18:42:35.074Z,99102.13
2018-07-16T18:45:03.105Z,99108.46
2018-07-16T18:47:31.321Z,99105.59
2018-07-16T18:49:59.693Z,99106.12
2018-07-16T18:52:27.754Z,99114.70
2018-07-16T18:54:56.038Z,99119.08
2018-07-16T18:57:24.313Z,99118.44
2018-07-16T18:59:52.627Z,99122.26
2018-07-16T19:02:20.982Z,99121.78
2018-07-16T19:04:49.254Z,99119.73
2018-07-16T19:07:21.257Z,99128.72
2018-07-16T19:09:49.666Z,99126.55
2018-07-16T19:12:17.974Z,99116.64
2018-07-16T19:14:46.330Z,99115.13
2018-07-16T19:17:14.718Z,99113.36
2018-07-16T19:19:43.089Z,99110.23
2018-07-16T19:22:11.417Z,99118.91
2018-07-16T19:24:39.656Z,99118.91
2018-07-16T19:27:07.904Z,99112.61
2018-07-16T19:29:36.353Z,99120.44
2018-07-16T19:32:04.668Z,99118.32
2018-07-16T19:34:33.054Z,99112.34
2018-07-16T19:37:02.061Z,99112.42
2018-07-16T19:39:30.331Z,99115.32
2018-07-16T19:41:58.710Z,99108.75
2018-07-16T19:44:27.095Z,99113.77
2018-07-16T19:46:55.346Z,99111.41
2018-07-16T19:49:23.677Z,99113.47
2018-07-16T19:51:51.905Z,99106.72
2018-07-16T19:54:20.191Z,99102.72
2018-07-16T19:56:48.609Z,99092.20
2018-07-16T19:59:16.937Z,99098.61
2018-07-16T20:01:45.413Z,99094.77
2018-07-16T20:04:13.804Z,99097.33
2018-07-16T20:06:42.174Z,99100.77
2018-07-16T20:09:10.032Z,99096.25
2018-07-16T20:11:38.450Z,99093.45
2018-07-16T20:14:06.803Z,99092.36
2018-07-16T20:16:39.553Z,99086.70
2018-07-16T20:19:08.047Z,99089.94
2018-07-16T20:21:36.468Z,99089.26
2018-07-16T20:24:04.541Z,99090.63
2018-07-16T20:26:32.981Z,99084.70
2018-07-16T20:29:01.258Z,99085.33
2018-07-16T20:31:29.549Z,99082.28
2018-07-16T20:33:57.844Z,99076.16
2018-07-16T20:36:26.071Z,99078.80
2018-07-16T20:38:54.472Z,99078.30
2018-07-16T20:41:22.923Z,99079.77
2018-07-16T20:43:51.358Z,99075.72
2018-07-16T20:46:19.699Z,99074.38
2018-07-16T20:48:48.182Z,99080.67
2018-07-16T20:51:16.481Z,99080.54
2018-07-16T20:53:44.833Z,99079.27
2018-07-16T20:56:13.105Z,99076.34
2018-07-16T20:58:41.635Z,99072.39
2018-07-16T21:01:09.774Z,99067.22
2018-07-16T21:03:38.137Z,99066.80
2018-07-16T21:06:06.442Z,99063.55
2018-07-16T21:08:34.894Z,99065.50
2018-07-16T21:11:03.180Z,99064.75
2018-07-16T21:13:31.512Z,99062.56
2018-07-16T21:15:59.821Z,99063.21
2018-07-16T21:18:28.106Z,99067.05
2018-07-16T21:20:56.618Z,99061.61
2018-07-16T21:23:24.725Z,99060.62
2018-07-16T21:25:53.030Z,99054.95
2018-07-16T21:28:21.440Z,99054.60
2018-07-16T21:30:49.894Z,99050.51
2018-07-16T21:33:18.175Z,99046.23
2018-07-16T21:35:46.485Z,99043.09
2018-07-16T21:38:14.827Z,99043.41
2018-07-16T21:40:43.208Z,99045.98
2018-07-16T21:43:11.610Z,99047.48
2018-07-16T21:45:39.733Z,99043.16
2018-07-16T21:48:07.822Z,99036.73
2018-07-16T21:50:36.258Z,99032.58
2018-07-16T21:53:04.663Z,99026.77
2018-07-16T21:55:32.535Z,99021.66
2018-07-16T21:58:00.794Z,99020.20
2018-07-16T22:00:30.870Z,99015.63
2018-07-16T22:03:00.036Z,99010.35
2018-07-16T22:05:28.721Z,99004.42
2018-07-16T22:07:58.004Z,99005.52
2018-07-16T22:10:26.454Z,99005.53
2018-07-16T22:12:55.533Z,99004.19
2018-07-16T22:15:25.393Z,99009.98
2018-07-16T22:17:54.457Z,99010.78
2018-07-16T22:20:23.730Z,99007.25
2018-07-16T22:22:52.113Z,99010.78
2018-07-16T22:25:20.073Z,99012.97
2018-07-16T22:27:48.412Z,99015.42
2018-07-16T22:30:16.825Z,99011.94
2018-07-16T22:32:45.165Z,99010.70
2018-07-16T22:35:13.537Z,98995.39
2018-07-16T22:37:41.876Z,98993.33
2018-07-16T22:40:10.195Z,98993.02
2018-07-16T22:42:38.573Z,98992.05
2018-07-16T22:45:07.705Z,98993.98
2018-07-16T22:47:36.050Z,98991.70
2018-07-16T22:50:04.529Z,98999.09
2018-07-16T22:52:32.943Z,98989.94
2018-07-16T22:55:01.191Z,98986.02
2018-07-16T22:57:29.468Z,98988.17
2018-07-16T22:59:57.777Z,98992.73
2018-07-16T23:02:26.117Z,98997.44
2018-07-16T23:04:54.496Z,98992.45
2018-07-16T23:07:23.006Z,98995.13
2018-07-16T23:09:51.262Z,99003.80
2018-07-16T23:12:19.627Z,99005.83
2018-07-16T23:14:47.830Z,99003.28
2018-07-16T23:17:16.386Z,99006.44
2018-07-16T23:19:44.654Z,99002.22
2018-07-16T23:22:12.965Z,99008.13
2018-07-16T23:24:41.305Z,99006.48
2018-07-16T23:27:09.576Z,99011.17
2018-07-16T23:29:37.995Z,99009.12
2018-07-16T23:32:07.157Z,99001.64
2018-07-16T23:34:35.423Z,99002.34
2018-07-16T23:37:03.948Z,99005.88
2018-07-16T23:39:32.181Z,99007.05
2018-07-16T23:42:00.358Z,99008.15
2018-07-16T23:44:28.646Z,99001.67
2018-07-16T23:46:57.018Z,99002.70
2018-07-16T23:49:24.990Z,98997.35
2018-07-16T23:51:53.278Z,99002.03
2018-07-16T23:54:21.538Z,98997.16
2018-07-16T23:56:49.734Z,98995.34
2018-07-16T23:59:17.982Z,98997.89
